Pagrindinis puslapis
METAR-TAF:

METAR-TAF

Oro uostai :

Kosraė, Mikronezija

platuma: 05-21N, ilguma: 162-57E, Aukštis: 3 m

Dabartinis oras

Ataskaita buvo paskelbta 23 valandos ir 35 minutes, ne 02:55 UTC
Vėjas 8 kt iš Rytų
Temperatūra 26°C
Drėgmė 89%
Slėgis 1010 hPa
Matomumas: 16.1 km
Su prošvaistėmis ne aukštis 1700 ft
Su prošvaistėmis ne aukštis 12000 ft
Apsiniaukę ne aukštis 30000 ft
lietus

METAR: PTSA 160255Z 10008KT 10SM -SHRA BKN017 BKN120 OVC300 26/24 A2983 RMK LAST

Laikas: 13:30 (02:30 UTC)

Prognozė

Ataskaita buvo paskelbta 25 valandos ir 3 minutes, ne 01:27 UTC
Prognozė galioja nuo 16 metu 01 UTC su 16 metu 24 UTC
Vėjas 11 kt iš Rytų/Šiaurės Rytų
Matomumas: 10 km
Išsisklaidę debesys ne aukštis 1500 ft
Su prošvaistėmis ne aukštis 13000 ft
Liūtis kaimynystėje
Laikinai
nuo 16 metu 01 UTC su 16 metu 04 UTC
Vėjas 18 kt iš Rytų su gūsio iki 28 kt
Matomumas: 3.2 km
Apsiniaukę ne aukštis 1500 ft
lietus

TAF: PTSA 160127Z 1601/1624 06011KT P6SM VCSH SCT015 BKN130 TEMPO 1601/1604 09018G28KT 2SM +SHRA OVC015

Orai ataskaitas ir orų prognozės (METAR, TAF).

turimą stotys yra geltonos ir raudonos taškus žemėlapyje.

Perkelti pele per norėdami pamatyti stoties vardą.

Tada spustelėkite, norėdami matyti oro stebėjimo ir prognozės.

Norėdami pakeisti žemėlapį: spustelėkite ant žalios mygtukų su juodo kryžiaus žemyn,; žalią mygtuką su brūkšneliu, jei norite nutolinti; arba žalių rodyklių gretimoms žemėlapius.


METAR-TAF: